sensor_id;sensor_type;location;lat;lon;timestamp;P1;durP1;ratioP1;P2;durP2;ratioP2
16502;SDS011;53067;48.114;11.694;2023-05-07T00:00:36;5.53;;;5.03;;
16502;SDS011;53067;48.114;11.694;2023-05-07T00:03:04;4.93;;;4.47;;
16502;SDS011;53067;48.114;11.694;2023-05-07T00:05:32;5.30;;;4.80;;
16502;SDS011;53067;48.114;11.694;2023-05-07T00:07:59;4.87;;;4.57;;
16502;SDS011;53067;48.114;11.694;2023-05-07T00:10:27;4.90;;;4.40;;
16502;SDS011;53067;48.114;11.694;2023-05-07T00:12:54;5.10;;;4.60;;
16502;SDS011;53067;48.114;11.694;2023-05-07T00:15:22;5.33;;;4.90;;
16502;SDS011;53067;48.114;11.694;2023-05-07T00:17:49;5.10;;;4.70;;
16502;SDS011;53067;48.114;11.694;2023-05-07T00:20:17;4.70;;;4.40;;
16502;SDS011;53067;48.114;11.694;2023-05-07T00:22:44;4.97;;;4.57;;
16502;SDS011;53067;48.114;11.694;2023-05-07T00:25:12;4.47;;;4.17;;
16502;SDS011;53067;48.114;11.694;2023-05-07T00:27:39;4.97;;;4.50;;
16502;SDS011;53067;48.114;11.694;2023-05-07T00:30:07;5.17;;;4.63;;
16502;SDS011;53067;48.114;11.694;2023-05-07T00:32:36;4.70;;;4.23;;
16502;SDS011;53067;48.114;11.694;2023-05-07T00:35:04;5.20;;;4.70;;
16502;SDS011;53067;48.114;11.694;2023-05-07T00:37:32;4.87;;;4.43;;
16502;SDS011;53067;48.114;11.694;2023-05-07T00:40:00;5.00;;;4.60;;
16502;SDS011;53067;48.114;11.694;2023-05-07T00:42:29;5.63;;;4.53;;
16502;SDS011;53067;48.114;11.694;2023-05-07T00:44:58;4.90;;;4.50;;
16502;SDS011;53067;48.114;11.694;2023-05-07T00:47:25;4.73;;;4.37;;
16502;SDS011;53067;48.114;11.694;2023-05-07T00:49:53;5.53;;;5.03;;
16502;SDS011;53067;48.114;11.694;2023-05-07T00:52:21;4.63;;;4.30;;
16502;SDS011;53067;48.114;11.694;2023-05-07T00:54:51;4.83;;;4.43;;
16502;SDS011;53067;48.114;11.694;2023-05-07T00:57:20;5.20;;;4.77;;
16502;SDS011;53067;48.114;11.694;2023-05-07T00:59:50;5.03;;;4.63;;
16502;SDS011;53067;48.114;11.694;2023-05-07T01:02:18;5.27;;;4.77;;
16502;SDS011;53067;48.114;11.694;2023-05-07T01:04:46;5.40;;;4.90;;
16502;SDS011;53067;48.114;11.694;2023-05-07T01:07:13;4.90;;;4.50;;
16502;SDS011;53067;48.114;11.694;2023-05-07T01:09:41;4.80;;;4.40;;
16502;SDS011;53067;48.114;11.694;2023-05-07T01:12:09;4.80;;;4.40;;
16502;SDS011;53067;48.114;11.694;2023-05-07T01:14:37;4.83;;;4.43;;
16502;SDS011;53067;48.114;11.694;2023-05-07T01:17:05;4.50;;;4.20;;
16502;SDS011;53067;48.114;11.694;2023-05-07T01:19:33;4.97;;;4.40;;
16502;SDS011;53067;48.114;11.694;2023-05-07T01:22:03;4.47;;;4.17;;
16502;SDS011;53067;48.114;11.694;2023-05-07T01:24:32;4.93;;;4.27;;
16502;SDS011;53067;48.114;11.694;2023-05-07T01:27:00;4.60;;;4.30;;
16502;SDS011;53067;48.114;11.694;2023-05-07T01:29:28;3.97;;;3.77;;
16502;SDS011;53067;48.114;11.694;2023-05-07T01:31:59;4.63;;;4.33;;
16502;SDS011;53067;48.114;11.694;2023-05-07T01:34:28;4.40;;;4.10;;
16502;SDS011;53067;48.114;11.694;2023-05-07T01:36:57;5.07;;;4.67;;
16502;SDS011;53067;48.114;11.694;2023-05-07T01:39:27;4.53;;;4.23;;
16502;SDS011;53067;48.114;11.694;2023-05-07T01:41:56;5.00;;;4.60;;
16502;SDS011;53067;48.114;11.694;2023-05-07T01:44:25;5.13;;;4.50;;
16502;SDS011;53067;48.114;11.694;2023-05-07T01:46:53;6.53;;;4.93;;
16502;SDS011;53067;48.114;11.694;2023-05-07T01:49:22;5.40;;;4.90;;
16502;SDS011;53067;48.114;11.694;2023-05-07T01:51:50;4.80;;;4.40;;
16502;SDS011;53067;48.114;11.694;2023-05-07T01:54:18;4.30;;;4.00;;
16502;SDS011;53067;48.114;11.694;2023-05-07T01:56:46;5.90;;;4.73;;
16502;SDS011;53067;48.114;11.694;2023-05-07T01:59:14;5.30;;;4.60;;
16502;SDS011;53067;48.114;11.694;2023-05-07T02:01:42;4.80;;;4.40;;
16502;SDS011;53067;48.114;11.694;2023-05-07T02:04:09;4.80;;;4.43;;
16502;SDS011;53067;48.114;11.694;2023-05-07T02:06:37;5.20;;;4.80;;
16502;SDS011;53067;48.114;11.694;2023-05-07T02:09:04;5.00;;;4.57;;
16502;SDS011;53067;48.114;11.694;2023-05-07T02:11:32;4.57;;;4.17;;
16502;SDS011;53067;48.114;11.694;2023-05-07T02:14:00;4.63;;;4.30;;
16502;SDS011;53067;48.114;11.694;2023-05-07T02:16:27;5.97;;;4.83;;
16502;SDS011;53067;48.114;11.694;2023-05-07T02:18:55;4.60;;;4.20;;
16502;SDS011;53067;48.114;11.694;2023-05-07T02:21:24;4.53;;;4.20;;
16502;SDS011;53067;48.114;11.694;2023-05-07T02:23:52;4.90;;;4.50;;
16502;SDS011;53067;48.114;11.694;2023-05-07T02:26:19;5.73;;;4.60;;
16502;SDS011;53067;48.114;11.694;2023-05-07T02:28:47;5.43;;;4.20;;
16502;SDS011;53067;48.114;11.694;2023-05-07T02:31:14;5.00;;;4.13;;
16502;SDS011;53067;48.114;11.694;2023-05-07T02:33:42;5.07;;;4.57;;
16502;SDS011;53067;48.114;11.694;2023-05-07T02:36:11;4.73;;;4.10;;
16502;SDS011;53067;48.114;11.694;2023-05-07T02:38:39;5.07;;;4.60;;
16502;SDS011;53067;48.114;11.694;2023-05-07T02:41:06;4.17;;;3.93;;
16502;SDS011;53067;48.114;11.694;2023-05-07T02:43:34;5.63;;;4.83;;
16502;SDS011;53067;48.114;11.694;2023-05-07T02:46:02;4.60;;;4.20;;
16502;SDS011;53067;48.114;11.694;2023-05-07T02:48:30;5.47;;;4.73;;
16502;SDS011;53067;48.114;11.694;2023-05-07T02:50:58;4.70;;;4.30;;
16502;SDS011;53067;48.114;11.694;2023-05-07T02:53:26;4.80;;;4.37;;
16502;SDS011;53067;48.114;11.694;2023-05-07T02:55:56;4.50;;;4.20;;
16502;SDS011;53067;48.114;11.694;2023-05-07T02:58:25;4.73;;;4.33;;
16502;SDS011;53067;48.114;11.694;2023-05-07T03:00:53;4.83;;;4.43;;
16502;SDS011;53067;48.114;11.694;2023-05-07T03:03:23;4.80;;;4.50;;
16502;SDS011;53067;48.114;11.694;2023-05-07T03:05:51;4.40;;;4.10;;
16502;SDS011;53067;48.114;11.694;2023-05-07T03:08:18;4.57;;;4.20;;
16502;SDS011;53067;48.114;11.694;2023-05-07T03:10:46;4.70;;;4.30;;
16502;SDS011;53067;48.114;11.694;2023-05-07T03:13:13;4.70;;;4.30;;
16502;SDS011;53067;48.114;11.694;2023-05-07T03:15:41;5.17;;;4.73;;
16502;SDS011;53067;48.114;11.694;2023-05-07T03:18:08;4.80;;;4.50;;
16502;SDS011;53067;48.114;11.694;2023-05-07T03:20:36;4.60;;;4.30;;
16502;SDS011;53067;48.114;11.694;2023-05-07T03:23:04;5.07;;;4.57;;
16502;SDS011;53067;48.114;11.694;2023-05-07T03:25:31;5.43;;;4.80;;
16502;SDS011;53067;48.114;11.694;2023-05-07T03:27:59;4.90;;;4.60;;
16502;SDS011;53067;48.114;11.694;2023-05-07T03:30:26;4.70;;;4.40;;
16502;SDS011;53067;48.114;11.694;2023-05-07T03:32:54;4.77;;;4.47;;
16502;SDS011;53067;48.114;11.694;2023-05-07T03:35:22;4.93;;;4.63;;
16502;SDS011;53067;48.114;11.694;2023-05-07T03:37:49;4.70;;;4.30;;
16502;SDS011;53067;48.114;11.694;2023-05-07T03:40:17;4.60;;;4.23;;
16502;SDS011;53067;48.114;11.694;2023-05-07T03:42:44;5.20;;;4.70;;
16502;SDS011;53067;48.114;11.694;2023-05-07T03:45:12;5.00;;;4.53;;
16502;SDS011;53067;48.114;11.694;2023-05-07T03:47:39;4.97;;;4.57;;
16502;SDS011;53067;48.114;11.694;2023-05-07T03:50:07;5.20;;;4.70;;
16502;SDS011;53067;48.114;11.694;2023-05-07T03:52:55;4.20;;;3.90;;
16502;SDS011;53067;48.114;11.694;2023-05-07T03:55:23;4.43;;;4.10;;
16502;SDS011;53067;48.114;11.694;2023-05-07T03:57:52;5.73;;;4.43;;
16502;SDS011;53067;48.114;11.694;2023-05-07T04:00:20;4.63;;;4.33;;
16502;SDS011;53067;48.114;11.694;2023-05-07T04:02:47;4.60;;;4.30;;
16502;SDS011;53067;48.114;11.694;2023-05-07T04:08:02;4.67;;;4.27;;
16502;SDS011;53067;48.114;11.694;2023-05-07T04:10:30;4.77;;;3.83;;
16502;SDS011;53067;48.114;11.694;2023-05-07T04:12:57;3.73;;;3.50;;
16502;SDS011;53067;48.114;11.694;2023-05-07T04:15:25;4.17;;;3.77;;
16502;SDS011;53067;48.114;11.694;2023-05-07T04:17:52;4.20;;;3.90;;
16502;SDS011;53067;48.114;11.694;2023-05-07T04:20:20;4.20;;;3.80;;
16502;SDS011;53067;48.114;11.694;2023-05-07T04:22:47;3.97;;;3.77;;
16502;SDS011;53067;48.114;11.694;2023-05-07T04:25:15;4.47;;;4.17;;
16502;SDS011;53067;48.114;11.694;2023-05-07T04:27:43;4.13;;;3.83;;
16502;SDS011;53067;48.114;11.694;2023-05-07T04:30:10;4.77;;;4.07;;
16502;SDS011;53067;48.114;11.694;2023-05-07T04:32:39;3.70;;;3.40;;
16502;SDS011;53067;48.114;11.694;2023-05-07T04:35:07;3.80;;;3.53;;
16502;SDS011;53067;48.114;11.694;2023-05-07T04:37:34;4.20;;;3.80;;
16502;SDS011;53067;48.114;11.694;2023-05-07T04:40:02;4.33;;;4.03;;
16502;SDS011;53067;48.114;11.694;2023-05-07T04:42:53;4.13;;;3.73;;
16502;SDS011;53067;48.114;11.694;2023-05-07T04:45:21;4.40;;;4.10;;
16502;SDS011;53067;48.114;11.694;2023-05-07T04:47:48;4.63;;;3.60;;
16502;SDS011;53067;48.114;11.694;2023-05-07T04:50:16;4.10;;;3.80;;
16502;SDS011;53067;48.114;11.694;2023-05-07T04:52:45;4.33;;;3.93;;
16502;SDS011;53067;48.114;11.694;2023-05-07T04:55:12;4.00;;;3.70;;
16502;SDS011;53067;48.114;11.694;2023-05-07T04:57:40;4.30;;;3.47;;
16502;SDS011;53067;48.114;11.694;2023-05-07T05:00:08;4.40;;;4.10;;
16502;SDS011;53067;48.114;11.694;2023-05-07T05:02:36;4.83;;;3.87;;
16502;SDS011;53067;48.114;11.694;2023-05-07T05:05:03;4.77;;;4.40;;
16502;SDS011;53067;48.114;11.694;2023-05-07T05:07:31;4.87;;;4.43;;
16502;SDS011;53067;48.114;11.694;2023-05-07T05:09:59;4.20;;;3.90;;
16502;SDS011;53067;48.114;11.694;2023-05-07T05:12:26;3.83;;;3.60;;
16502;SDS011;53067;48.114;11.694;2023-05-07T05:14:54;4.13;;;3.90;;
16502;SDS011;53067;48.114;11.694;2023-05-07T05:17:21;4.77;;;4.40;;
16502;SDS011;53067;48.114;11.694;2023-05-07T05:19:49;3.93;;;3.73;;
16502;SDS011;53067;48.114;11.694;2023-05-07T05:22:17;3.93;;;3.73;;
16502;SDS011;53067;48.114;11.694;2023-05-07T05:24:44;3.90;;;3.60;;
16502;SDS011;53067;48.114;11.694;2023-05-07T05:27:12;4.13;;;3.83;;
16502;SDS011;53067;48.114;11.694;2023-05-07T05:29:39;4.27;;;4.00;;
16502;SDS011;53067;48.114;11.694;2023-05-07T05:32:07;3.77;;;3.47;;
16502;SDS011;53067;48.114;11.694;2023-05-07T05:34:35;3.80;;;3.60;;
16502;SDS011;53067;48.114;11.694;2023-05-07T05:37:03;4.47;;;4.07;;
16502;SDS011;53067;48.114;11.694;2023-05-07T05:39:30;3.90;;;3.67;;
16502;SDS011;53067;48.114;11.694;2023-05-07T05:41:58;4.43;;;4.00;;
16502;SDS011;53067;48.114;11.694;2023-05-07T05:44:25;5.30;;;4.03;;
16502;SDS011;53067;48.114;11.694;2023-05-07T05:46:53;4.73;;;4.43;;
16502;SDS011;53067;48.114;11.694;2023-05-07T05:49:21;6.47;;;4.53;;
16502;SDS011;53067;48.114;11.694;2023-05-07T05:51:48;4.83;;;4.53;;
16502;SDS011;53067;48.114;11.694;2023-05-07T05:54:16;4.83;;;4.20;;
16502;SDS011;53067;48.114;11.694;2023-05-07T05:56:43;4.47;;;4.17;;
16502;SDS011;53067;48.114;11.694;2023-05-07T05:59:11;5.07;;;4.53;;
16502;SDS011;53067;48.114;11.694;2023-05-07T06:01:39;5.13;;;4.73;;
16502;SDS011;53067;48.114;11.694;2023-05-07T06:04:06;4.57;;;4.17;;
16502;SDS011;53067;48.114;11.694;2023-05-07T06:06:34;5.33;;;4.83;;
16502;SDS011;53067;48.114;11.694;2023-05-07T06:09:02;5.10;;;4.70;;
16502;SDS011;53067;48.114;11.694;2023-05-07T06:11:29;4.90;;;4.60;;
16502;SDS011;53067;48.114;11.694;2023-05-07T06:13:58;4.67;;;4.37;;
16502;SDS011;53067;48.114;11.694;2023-05-07T06:16:25;5.10;;;4.80;;
16502;SDS011;53067;48.114;11.694;2023-05-07T06:18:53;5.03;;;4.63;;
16502;SDS011;53067;48.114;11.694;2023-05-07T06:21:20;5.40;;;4.90;;
16502;SDS011;53067;48.114;11.694;2023-05-07T06:23:48;4.40;;;4.07;;
16502;SDS011;53067;48.114;11.694;2023-05-07T06:26:17;4.57;;;4.17;;
16502;SDS011;53067;48.114;11.694;2023-05-07T06:28:45;4.30;;;3.90;;
16502;SDS011;53067;48.114;11.694;2023-05-07T06:31:13;4.57;;;4.27;;
16502;SDS011;53067;48.114;11.694;2023-05-07T06:33:43;4.50;;;3.80;;
16502;SDS011;53067;48.114;11.694;2023-05-07T06:36:11;3.77;;;3.47;;
16502;SDS011;53067;48.114;11.694;2023-05-07T06:38:39;4.60;;;3.80;;
16502;SDS011;53067;48.114;11.694;2023-05-07T06:41:06;4.30;;;3.40;;
16502;SDS011;53067;48.114;11.694;2023-05-07T06:43:34;3.57;;;3.30;;
16502;SDS011;53067;48.114;11.694;2023-05-07T06:46:02;3.63;;;3.43;;
16502;SDS011;53067;48.114;11.694;2023-05-07T06:48:30;3.30;;;3.10;;
16502;SDS011;53067;48.114;11.694;2023-05-07T06:50:58;4.17;;;3.60;;
16502;SDS011;53067;48.114;11.694;2023-05-07T06:53:25;3.33;;;3.10;;
16502;SDS011;53067;48.114;11.694;2023-05-07T06:55:54;3.43;;;3.23;;
16502;SDS011;53067;48.114;11.694;2023-05-07T06:58:22;3.77;;;3.00;;
16502;SDS011;53067;48.114;11.694;2023-05-07T07:00:49;3.40;;;3.10;;
16502;SDS011;53067;48.114;11.694;2023-05-07T07:03:17;3.20;;;3.00;;
16502;SDS011;53067;48.114;11.694;2023-05-07T07:05:44;3.10;;;2.90;;
16502;SDS011;53067;48.114;11.694;2023-05-07T07:08:12;3.37;;;2.90;;
16502;SDS011;53067;48.114;11.694;2023-05-07T07:10:40;3.33;;;3.13;;
16502;SDS011;53067;48.114;11.694;2023-05-07T07:13:07;3.50;;;3.30;;
16502;SDS011;53067;48.114;11.694;2023-05-07T07:15:37;3.37;;;3.17;;
16502;SDS011;53067;48.114;11.694;2023-05-07T07:18:04;3.70;;;3.40;;
16502;SDS011;53067;48.114;11.694;2023-05-07T07:20:38;4.10;;;3.00;;
16502;SDS011;53067;48.114;11.694;2023-05-07T07:23:06;3.17;;;2.97;;
16502;SDS011;53067;48.114;11.694;2023-05-07T07:25:33;3.10;;;2.90;;
16502;SDS011;53067;48.114;11.694;2023-05-07T07:28:01;2.87;;;2.73;;
16502;SDS011;53067;48.114;11.694;2023-05-07T07:30:29;2.73;;;2.63;;
16502;SDS011;53067;48.114;11.694;2023-05-07T07:32:57;2.77;;;2.58;;
16502;SDS011;53067;48.114;11.694;2023-05-07T07:35:29;2.80;;;2.70;;
16502;SDS011;53067;48.114;11.694;2023-05-07T07:37:56;2.40;;;2.30;;
16502;SDS011;53067;48.114;11.694;2023-05-07T07:40:24;2.90;;;2.60;;
16502;SDS011;53067;48.114;11.694;2023-05-07T07:42:52;2.80;;;2.52;;
16502;SDS011;53067;48.114;11.694;2023-05-07T07:45:20;2.80;;;2.60;;
16502;SDS011;53067;48.114;11.694;2023-05-07T07:47:48;2.62;;;2.52;;
16502;SDS011;53067;48.114;11.694;2023-05-07T07:50:15;2.67;;;2.47;;
16502;SDS011;53067;48.114;11.694;2023-05-07T07:52:43;2.92;;;2.70;;
16502;SDS011;53067;48.114;11.694;2023-05-07T07:55:11;2.60;;;2.35;;
16502;SDS011;53067;48.114;11.694;2023-05-07T07:57:39;3.12;;;2.62;;
16502;SDS011;53067;48.114;11.694;2023-05-07T08:00:07;4.40;;;2.15;;
16502;SDS011;53067;48.114;11.694;2023-05-07T08:02:36;3.42;;;2.75;;
16502;SDS011;53067;48.114;11.694;2023-05-07T08:05:04;2.52;;;2.42;;
16502;SDS011;53067;48.114;11.694;2023-05-07T08:07:32;3.37;;;3.08;;
16502;SDS011;53067;48.114;11.694;2023-05-07T08:09:59;3.45;;;3.15;;
16502;SDS011;53067;48.114;11.694;2023-05-07T08:12:28;3.75;;;3.22;;
16502;SDS011;53067;48.114;11.694;2023-05-07T08:14:55;3.25;;;3.02;;
16502;SDS011;53067;48.114;11.694;2023-05-07T08:17:23;3.60;;;3.30;;
16502;SDS011;53067;48.114;11.694;2023-05-07T08:19:51;3.50;;;3.30;;
16502;SDS011;53067;48.114;11.694;2023-05-07T08:22:18;3.98;;;3.30;;
16502;SDS011;53067;48.114;11.694;2023-05-07T08:24:46;3.20;;;3.00;;
16502;SDS011;53067;48.114;11.694;2023-05-07T08:27:13;3.05;;;2.85;;
16502;SDS011;53067;48.114;11.694;2023-05-07T08:29:41;3.33;;;3.12;;
16502;SDS011;53067;48.114;11.694;2023-05-07T08:32:10;4.12;;;3.10;;
16502;SDS011;53067;48.114;11.694;2023-05-07T08:34:38;2.75;;;2.65;;
16502;SDS011;53067;48.114;11.694;2023-05-07T08:37:05;2.92;;;2.72;;
16502;SDS011;53067;48.114;11.694;2023-05-07T08:39:33;3.30;;;2.62;;
16502;SDS011;53067;48.114;11.694;2023-05-07T08:42:00;2.87;;;2.67;;
16502;SDS011;53067;48.114;11.694;2023-05-07T08:44:35;3.12;;;2.52;;
16502;SDS011;53067;48.114;11.694;2023-05-07T08:47:04;3.05;;;2.65;;
16502;SDS011;53067;48.114;11.694;2023-05-07T08:49:34;2.60;;;2.40;;
16502;SDS011;53067;48.114;11.694;2023-05-07T08:52:02;2.70;;;2.50;;
16502;SDS011;53067;48.114;11.694;2023-05-07T08:54:30;2.70;;;2.50;;
16502;SDS011;53067;48.114;11.694;2023-05-07T08:56:58;2.60;;;2.40;;
16502;SDS011;53067;48.114;11.694;2023-05-07T08:59:26;2.30;;;2.15;;
16502;SDS011;53067;48.114;11.694;2023-05-07T09:01:54;2.17;;;2.08;;
16502;SDS011;53067;48.114;11.694;2023-05-07T09:04:21;3.83;;;2.30;;
16502;SDS011;53067;48.114;11.694;2023-05-07T09:06:49;2.52;;;2.30;;
16502;SDS011;53067;48.114;11.694;2023-05-07T09:09:17;2.33;;;2.22;;
16502;SDS011;53067;48.114;11.694;2023-05-07T09:11:45;2.58;;;2.47;;
16502;SDS011;53067;48.114;11.694;2023-05-07T09:14:12;3.27;;;2.37;;
16502;SDS011;53067;48.114;11.694;2023-05-07T09:16:40;2.42;;;2.20;;
16502;SDS011;53067;48.114;11.694;2023-05-07T09:19:07;2.72;;;2.52;;
16502;SDS011;53067;48.114;11.694;2023-05-07T09:21:35;2.40;;;2.20;;
16502;SDS011;53067;48.114;11.694;2023-05-07T09:24:03;2.10;;;2.00;;
16502;SDS011;53067;48.114;11.694;2023-05-07T09:26:49;2.33;;;2.20;;
16502;SDS011;53067;48.114;11.694;2023-05-07T09:29:17;2.60;;;2.40;;
16502;SDS011;53067;48.114;11.694;2023-05-07T09:31:45;2.30;;;2.10;;
16502;SDS011;53067;48.114;11.694;2023-05-07T09:34:12;2.60;;;2.40;;
16502;SDS011;53067;48.114;11.694;2023-05-07T09:36:40;2.20;;;2.10;;
16502;SDS011;53067;48.114;11.694;2023-05-07T09:39:08;2.33;;;2.22;;
16502;SDS011;53067;48.114;11.694;2023-05-07T09:41:43;2.87;;;2.67;;
16502;SDS011;53067;48.114;11.694;2023-05-07T09:44:11;3.08;;;2.33;;
16502;SDS011;53067;48.114;11.694;2023-05-07T09:46:39;2.25;;;2.15;;
16502;SDS011;53067;48.114;11.694;2023-05-07T09:49:16;2.47;;;2.37;;
16502;SDS011;53067;48.114;11.694;2023-05-07T09:52:04;2.80;;;2.60;;
16502;SDS011;53067;48.114;11.694;2023-05-07T09:54:35;2.90;;;2.70;;
16502;SDS011;53067;48.114;11.694;2023-05-07T09:57:03;2.85;;;2.55;;
16502;SDS011;53067;48.114;11.694;2023-05-07T09:59:32;2.30;;;2.10;;
16502;SDS011;53067;48.114;11.694;2023-05-07T10:02:01;2.10;;;1.90;;
16502;SDS011;53067;48.114;11.694;2023-05-07T10:04:29;3.22;;;2.40;;
16502;SDS011;53067;48.114;11.694;2023-05-07T10:06:58;2.30;;;2.20;;
16502;SDS011;53067;48.114;11.694;2023-05-07T10:09:27;2.58;;;2.40;;
16502;SDS011;53067;48.114;11.694;2023-05-07T10:11:56;2.20;;;2.10;;
16502;SDS011;53067;48.114;11.694;2023-05-07T10:14:25;2.35;;;2.25;;
16502;SDS011;53067;48.114;11.694;2023-05-07T10:16:55;2.62;;;2.40;;
16502;SDS011;53067;48.114;11.694;2023-05-07T10:19:23;2.35;;;2.17;;
16502;SDS011;53067;48.114;11.694;2023-05-07T10:21:59;2.52;;;2.20;;
16502;SDS011;53067;48.114;11.694;2023-05-07T10:24:31;2.17;;;1.90;;
16502;SDS011;53067;48.114;11.694;2023-05-07T10:26:55;2.17;;;2.08;;
16502;SDS011;53067;48.114;11.694;2023-05-07T10:30:12;1.92;;;1.82;;
16502;SDS011;53067;48.114;11.694;2023-05-07T10:32:45;2.08;;;1.90;;
16502;SDS011;53067;48.114;11.694;2023-05-07T10:35:21;2.77;;;2.02;;
16502;SDS011;53067;48.114;11.694;2023-05-07T10:37:53;2.10;;;1.70;;
16502;SDS011;53067;48.114;11.694;2023-05-07T10:40:21;1.60;;;1.50;;
16502;SDS011;53067;48.114;11.694;2023-05-07T10:42:58;2.70;;;2.05;;
16502;SDS011;53067;48.114;11.694;2023-05-07T10:45:27;2.75;;;1.67;;
16502;SDS011;53067;48.114;11.694;2023-05-07T10:48:05;2.42;;;2.20;;
16502;SDS011;53067;48.114;11.694;2023-05-07T10:50:35;1.70;;;1.60;;
16502;SDS011;53067;48.114;11.694;2023-05-07T10:53:21;2.35;;;1.47;;
16502;SDS011;53067;48.114;11.694;2023-05-07T10:58:46;1.70;;;1.60;;
16502;SDS011;53067;48.114;11.694;2023-05-07T11:01:13;2.08;;;1.90;;
16502;SDS011;53067;48.114;11.694;2023-05-07T11:06:41;1.80;;;1.70;;
16502;SDS011;53067;48.114;11.694;2023-05-07T11:09:08;2.08;;;1.90;;
16502;SDS011;53067;48.114;11.694;2023-05-07T11:11:46;1.90;;;1.80;;
16502;SDS011;53067;48.114;11.694;2023-05-07T11:17:12;2.65;;;2.55;;
16502;SDS011;53067;48.114;11.694;2023-05-07T11:19:50;2.55;;;2.30;;
16502;SDS011;53067;48.114;11.694;2023-05-07T11:25:03;2.70;;;2.50;;
16502;SDS011;53067;48.114;11.694;2023-05-07T11:27:32;2.52;;;2.40;;
16502;SDS011;53067;48.114;11.694;2023-05-07T11:30:00;2.72;;;2.52;;
16502;SDS011;53067;48.114;11.694;2023-05-07T11:32:29;2.65;;;2.45;;
16502;SDS011;53067;48.114;11.694;2023-05-07T11:34:58;4.80;;;2.65;;
16502;SDS011;53067;48.114;11.694;2023-05-07T11:37:27;2.52;;;2.40;;
16502;SDS011;53067;48.114;11.694;2023-05-07T11:40:06;3.10;;;2.80;;
16502;SDS011;53067;48.114;11.694;2023-05-07T11:42:37;3.20;;;3.00;;
16502;SDS011;53067;48.114;11.694;2023-05-07T11:45:06;2.70;;;2.50;;
16502;SDS011;53067;48.114;11.694;2023-05-07T11:47:34;3.30;;;2.70;;
16502;SDS011;53067;48.114;11.694;2023-05-07T11:50:03;3.08;;;2.80;;
16502;SDS011;53067;48.114;11.694;2023-05-07T11:52:32;2.65;;;2.45;;
16502;SDS011;53067;48.114;11.694;2023-05-07T11:55:00;3.52;;;3.25;;
16502;SDS011;53067;48.114;11.694;2023-05-07T11:57:30;2.72;;;2.62;;
16502;SDS011;53067;48.114;11.694;2023-05-07T12:00:00;3.17;;;2.98;;
16502;SDS011;53067;48.114;11.694;2023-05-07T12:02:30;2.83;;;2.72;;
16502;SDS011;53067;48.114;11.694;2023-05-07T12:05:00;3.60;;;3.30;;
16502;SDS011;53067;48.114;11.694;2023-05-07T12:07:28;3.75;;;3.20;;
16502;SDS011;53067;48.114;11.694;2023-05-07T12:09:57;3.65;;;3.22;;
16502;SDS011;53067;48.114;11.694;2023-05-07T12:12:25;3.20;;;3.00;;
16502;SDS011;53067;48.114;11.694;2023-05-07T12:14:53;3.02;;;2.58;;
16502;SDS011;53067;48.114;11.694;2023-05-07T12:17:20;2.87;;;2.67;;
16502;SDS011;53067;48.114;11.694;2023-05-07T12:19:48;2.55;;;2.35;;
16502;SDS011;53067;48.114;11.694;2023-05-07T12:22:16;3.37;;;2.80;;
16502;SDS011;53067;48.114;11.694;2023-05-07T12:24:57;3.05;;;2.83;;
16502;SDS011;53067;48.114;11.694;2023-05-07T12:27:25;2.65;;;2.55;;
16502;SDS011;53067;48.114;11.694;2023-05-07T12:29:53;3.33;;;3.12;;
16502;SDS011;53067;48.114;11.694;2023-05-07T12:32:21;3.10;;;2.80;;
16502;SDS011;53067;48.114;11.694;2023-05-07T12:34:54;2.70;;;2.50;;
16502;SDS011;53067;48.114;11.694;2023-05-07T12:37:24;2.83;;;2.30;;
16502;SDS011;53067;48.114;11.694;2023-05-07T12:40:05;3.10;;;2.87;;
16502;SDS011;53067;48.114;11.694;2023-05-07T12:42:37;2.80;;;2.62;;
16502;SDS011;53067;48.114;11.694;2023-05-07T12:45:26;2.55;;;2.40;;
16502;SDS011;53067;48.114;11.694;2023-05-07T12:47:53;3.65;;;3.00;;
16502;SDS011;53067;48.114;11.694;2023-05-07T12:50:21;2.90;;;2.70;;
16502;SDS011;53067;48.114;11.694;2023-05-07T12:52:49;3.37;;;2.70;;
16502;SDS011;53067;48.114;11.694;2023-05-07T12:55:17;2.45;;;2.22;;
16502;SDS011;53067;48.114;11.694;2023-05-07T12:57:48;2.92;;;2.30;;
16502;SDS011;53067;48.114;11.694;2023-05-07T13:00:38;2.72;;;2.52;;
16502;SDS011;53067;48.114;11.694;2023-05-07T13:03:05;2.50;;;2.40;;
16502;SDS011;53067;48.114;11.694;2023-05-07T13:05:33;2.22;;;2.10;;
16502;SDS011;53067;48.114;11.694;2023-05-07T13:08:00;2.55;;;2.30;;
16502;SDS011;53067;48.114;11.694;2023-05-07T13:10:28;3.52;;;2.25;;
16502;SDS011;53067;48.114;11.694;2023-05-07T13:12:55;2.47;;;2.27;;
16502;SDS011;53067;48.114;11.694;2023-05-07T13:15:23;2.00;;;1.90;;
16502;SDS011;53067;48.114;11.694;2023-05-07T13:17:52;3.83;;;2.42;;
16502;SDS011;53067;48.114;11.694;2023-05-07T13:20:21;1.98;;;1.87;;
16502;SDS011;53067;48.114;11.694;2023-05-07T13:22:48;2.45;;;2.25;;
16502;SDS011;53067;48.114;11.694;2023-05-07T13:25:16;3.33;;;2.40;;
16502;SDS011;53067;48.114;11.694;2023-05-07T13:27:43;2.40;;;2.30;;
16502;SDS011;53067;48.114;11.694;2023-05-07T13:30:11;2.27;;;2.08;;
16502;SDS011;53067;48.114;11.694;2023-05-07T13:32:39;2.65;;;2.45;;
16502;SDS011;53067;48.114;11.694;2023-05-07T13:35:06;2.58;;;2.42;;
16502;SDS011;53067;48.114;11.694;2023-05-07T13:37:34;2.62;;;2.42;;
16502;SDS011;53067;48.114;11.694;2023-05-07T13:40:02;2.72;;;2.50;;
16502;SDS011;53067;48.114;11.694;2023-05-07T13:42:34;2.40;;;2.30;;
16502;SDS011;53067;48.114;11.694;2023-05-07T13:45:02;2.80;;;2.17;;
16502;SDS011;53067;48.114;11.694;2023-05-07T13:47:30;1.85;;;1.75;;
16502;SDS011;53067;48.114;11.694;2023-05-07T13:49:58;1.92;;;1.82;;
16502;SDS011;53067;48.114;11.694;2023-05-07T13:52:25;2.70;;;2.30;;
16502;SDS011;53067;48.114;11.694;2023-05-07T13:54:53;1.72;;;1.70;;
16502;SDS011;53067;48.114;11.694;2023-05-07T13:57:22;2.20;;;2.10;;
16502;SDS011;53067;48.114;11.694;2023-05-07T13:59:49;2.08;;;1.98;;
16502;SDS011;53067;48.114;11.694;2023-05-07T14:02:17;3.75;;;2.30;;
16502;SDS011;53067;48.114;11.694;2023-05-07T14:04:44;2.12;;;2.02;;
16502;SDS011;53067;48.114;11.694;2023-05-07T14:07:12;3.60;;;2.52;;
16502;SDS011;53067;48.114;11.694;2023-05-07T14:09:39;2.60;;;2.00;;
16502;SDS011;53067;48.114;11.694;2023-05-07T14:12:07;1.75;;;1.65;;
16502;SDS011;53067;48.114;11.694;2023-05-07T14:14:35;2.02;;;1.82;;
16502;SDS011;53067;48.114;11.694;2023-05-07T14:17:02;5.22;;;2.62;;
16502;SDS011;53067;48.114;11.694;2023-05-07T14:19:30;2.67;;;2.47;;
16502;SDS011;53067;48.114;11.694;2023-05-07T14:21:57;2.10;;;2.00;;
16502;SDS011;53067;48.114;11.694;2023-05-07T14:24:25;2.50;;;2.30;;
16502;SDS011;53067;48.114;11.694;2023-05-07T14:26:52;2.08;;;1.98;;
16502;SDS011;53067;48.114;11.694;2023-05-07T14:29:20;2.33;;;2.12;;
16502;SDS011;53067;48.114;11.694;2023-05-07T14:31:48;3.98;;;2.27;;
16502;SDS011;53067;48.114;11.694;2023-05-07T14:34:16;2.17;;;2.00;;
16502;SDS011;53067;48.114;11.694;2023-05-07T14:36:43;2.22;;;2.12;;
16502;SDS011;53067;48.114;11.694;2023-05-07T14:39:11;2.02;;;1.92;;
16502;SDS011;53067;48.114;11.694;2023-05-07T14:41:38;2.30;;;2.10;;
16502;SDS011;53067;48.114;11.694;2023-05-07T14:44:06;2.20;;;2.00;;
16502;SDS011;53067;48.114;11.694;2023-05-07T14:46:33;2.35;;;2.15;;
16502;SDS011;53067;48.114;11.694;2023-05-07T14:49:01;3.27;;;2.40;;
16502;SDS011;53067;48.114;11.694;2023-05-07T14:51:31;2.27;;;2.17;;
16502;SDS011;53067;48.114;11.694;2023-05-07T14:53:58;2.22;;;2.12;;
16502;SDS011;53067;48.114;11.694;2023-05-07T14:56:27;2.00;;;1.90;;